createdAt,value
2019-04-10T00:01:17.869Z,6.50
2019-04-10T00:03:48.789Z,6.60
2019-04-10T00:06:19.594Z,6.50
2019-04-10T00:08:50.591Z,6.50
2019-04-10T00:11:21.515Z,6.40
2019-04-10T00:13:53.177Z,6.40
2019-04-10T00:16:24.501Z,6.40
2019-04-10T00:18:56.140Z,6.30
2019-04-10T00:21:27.240Z,6.40
2019-04-10T00:23:58.010Z,6.30
2019-04-10T00:26:32.035Z,6.30
2019-04-10T00:29:03.607Z,6.20
2019-04-10T00:31:34.522Z,6.20
2019-04-10T00:34:05.426Z,6.10
2019-04-10T00:36:37.343Z,6.10
2019-04-10T00:39:09.045Z,6.10
2019-04-10T00:41:40.678Z,6.00
2019-04-10T00:44:13.349Z,5.90
2019-04-10T00:46:44.477Z,5.90
2019-04-10T00:49:15.563Z,5.80
2019-04-10T00:51:46.470Z,5.80
2019-04-10T00:54:18.109Z,5.70
2019-04-10T00:56:48.997Z,5.70
2019-04-10T00:59:19.989Z,5.60
2019-04-10T01:01:52.040Z,5.60
2019-04-10T01:04:26.590Z,5.60
2019-04-10T01:06:57.762Z,5.60
2019-04-10T01:09:29.145Z,5.50
2019-04-10T01:11:59.969Z,5.50
2019-04-10T01:14:31.599Z,5.50
2019-04-10T01:17:02.535Z,5.40
2019-04-10T01:19:34.227Z,5.50
2019-04-10T01:22:05.186Z,5.40
2019-04-10T01:24:35.910Z,5.40
2019-04-10T01:27:07.643Z,5.30
2019-04-10T01:29:38.564Z,5.30
2019-04-10T01:32:10.475Z,5.30
2019-04-10T01:34:43.380Z,5.20
2019-04-10T01:37:16.650Z,5.30
2019-04-10T01:39:48.560Z,5.20
2019-04-10T01:42:19.462Z,5.20
2019-04-10T01:44:51.150Z,5.10
2019-04-10T01:47:22.053Z,5.00
2019-04-10T01:49:53.747Z,5.00
2019-04-10T02:11:11.772Z,4.60
2019-04-10T02:13:43.497Z,4.60
2019-04-10T02:16:14.599Z,4.60
2019-04-10T02:18:45.729Z,4.50
2019-04-10T02:21:16.575Z,4.50
2019-04-10T02:23:47.267Z,4.50
2019-04-10T02:26:19.146Z,4.40
2019-04-10T02:28:49.873Z,4.30
2019-04-10T02:31:21.623Z,4.30
2019-04-10T02:33:53.754Z,4.30
2019-04-10T02:36:26.854Z,4.20
2019-04-10T02:39:08.775Z,4.20
2019-04-10T02:41:32.401Z,4.20
2019-04-10T02:44:04.830Z,4.10
2019-04-10T02:46:36.938Z,4.10
2019-04-10T02:49:08.870Z,4.00
2019-04-10T02:51:41.099Z,4.00
2019-04-10T02:54:13.693Z,4.00
2019-04-10T02:56:45.798Z,3.90
2019-04-10T02:59:18.690Z,3.90
2019-04-10T03:01:49.774Z,3.90
2019-04-10T03:04:20.745Z,3.80
2019-04-10T03:06:53.414Z,3.80
2019-04-10T03:09:38.762Z,3.80
2019-04-10T03:11:57.430Z,3.80
2019-04-10T03:14:28.594Z,3.80
2019-04-10T03:16:59.786Z,3.70
2019-04-10T03:19:31.660Z,3.70
2019-04-10T03:22:03.792Z,3.80
2019-04-10T03:24:35.898Z,3.80
2019-04-10T03:27:07.377Z,3.70
2019-04-10T03:29:38.132Z,3.70
2019-04-10T03:32:41.781Z,3.60
2019-04-10T03:35:18.697Z,3.60
2019-04-10T03:37:50.747Z,3.60
2019-04-10T03:40:21.860Z,3.60
2019-04-10T03:42:53.037Z,3.60
2019-04-10T03:45:24.344Z,3.50
2019-04-10T03:47:55.762Z,3.50
2019-04-10T03:50:27.765Z,3.50
2019-04-10T03:52:58.642Z,3.50
2019-04-10T03:55:30.638Z,3.60
2019-04-10T03:58:01.420Z,3.60
2019-04-10T04:00:32.172Z,3.60
2019-04-10T04:03:04.406Z,3.60
2019-04-10T04:05:36.889Z,3.60
2019-04-10T04:08:07.945Z,3.50
2019-04-10T04:10:38.738Z,3.40
2019-04-10T04:13:09.638Z,3.30
2019-04-10T04:15:40.515Z,3.30
2019-04-10T04:18:11.358Z,3.30
2019-04-10T04:20:42.014Z,3.30
2019-04-10T04:23:13.680Z,3.30
2019-04-10T04:25:44.573Z,3.30
2019-04-10T04:28:15.294Z,3.30
2019-04-10T04:30:45.922Z,3.20
2019-04-10T04:33:16.685Z,3.30
2019-04-10T04:35:47.458Z,3.20
2019-04-10T04:38:18.233Z,3.20
2019-04-10T04:40:49.032Z,3.20
2019-04-10T04:43:21.610Z,3.20
2019-04-10T04:45:53.057Z,3.20
2019-04-10T04:48:24.325Z,3.20
2019-04-10T04:50:55.226Z,3.20
2019-04-10T04:53:26.090Z,3.30
2019-04-10T04:55:57.890Z,3.20
2019-04-10T04:58:30.899Z,3.10
2019-04-10T05:01:02.114Z,3.10
2019-04-10T05:03:33.523Z,3.10
2019-04-10T05:06:08.033Z,3.20
2019-04-10T05:08:42.029Z,3.20
2019-04-10T05:11:13.828Z,3.10
2019-04-10T05:13:44.987Z,3.10
2019-04-10T05:16:16.594Z,3.10
2019-04-10T05:18:48.568Z,3.20
2019-04-10T05:21:21.299Z,3.20
2019-04-10T05:23:52.179Z,3.30
2019-04-10T05:26:23.156Z,3.20
2019-04-10T05:28:54.916Z,3.20
2019-04-10T05:31:25.770Z,3.20
2019-04-10T05:33:57.386Z,3.20
2019-04-10T05:36:29.282Z,3.20
2019-04-10T05:39:00.372Z,3.30
2019-04-10T05:41:31.418Z,3.30
2019-04-10T05:44:02.816Z,3.30
2019-04-10T05:46:33.691Z,3.30
2019-04-10T05:49:04.526Z,3.30
2019-04-10T05:51:35.373Z,3.40
2019-04-10T05:54:06.489Z,3.40
2019-04-10T05:56:38.385Z,3.40
2019-04-10T05:59:10.800Z,3.40
2019-04-10T06:01:43.168Z,3.50
2019-04-10T06:04:14.340Z,3.50
2019-04-10T06:06:44.995Z,3.50
2019-04-10T06:09:16.348Z,3.50
2019-04-10T06:11:47.411Z,3.60
2019-04-10T06:14:18.186Z,3.70
2019-04-10T06:16:49.006Z,3.60
2019-04-10T06:19:19.998Z,3.70
2019-04-10T06:21:50.898Z,3.60
2019-04-10T06:24:22.443Z,3.70
2019-04-10T06:26:54.089Z,3.80
2019-04-10T06:29:24.798Z,3.80
2019-04-10T06:31:55.476Z,3.80
2019-04-10T06:34:26.223Z,4.00
2019-04-10T06:36:57.737Z,4.10
2019-04-10T06:39:28.887Z,4.10
2019-04-10T06:42:00.339Z,4.10
2019-04-10T06:44:32.167Z,4.30
2019-04-10T06:47:04.150Z,4.30
2019-04-10T06:49:35.014Z,4.30
2019-04-10T06:52:06.090Z,4.30
2019-04-10T06:54:38.593Z,4.50
2019-04-10T06:57:10.476Z,4.50
2019-04-10T06:59:42.352Z,4.60
2019-04-10T07:02:22.025Z,4.70
2019-04-10T07:04:52.395Z,4.80
2019-04-10T07:07:21.611Z,4.90
2019-04-10T07:09:52.293Z,5.00
2019-04-10T07:12:30.148Z,5.10
2019-04-10T07:14:58.331Z,5.30
2019-04-10T07:17:35.695Z,5.60
2019-04-10T07:20:05.502Z,5.90
2019-04-10T07:22:36.605Z,6.20
2019-04-10T07:25:10.336Z,6.50
2019-04-10T07:27:41.848Z,6.90
2019-04-10T07:30:15.987Z,7.20
2019-04-10T07:32:49.022Z,7.30
2019-04-10T07:35:21.483Z,7.60
2019-04-10T07:37:55.941Z,8.00
2019-04-10T07:40:24.960Z,8.20
2019-04-10T07:42:57.428Z,8.40
2019-04-10T07:45:28.230Z,8.50
2019-04-10T07:48:00.299Z,8.30
2019-04-10T07:50:31.262Z,8.40
2019-04-10T07:53:02.083Z,8.50
2019-04-10T07:55:33.116Z,8.60
2019-04-10T07:58:05.042Z,8.60
2019-04-10T08:00:36.661Z,8.70
2019-04-10T08:03:08.310Z,9.00
2019-04-10T08:05:39.333Z,9.00
2019-04-10T08:08:10.607Z,9.10
2019-04-10T08:10:43.534Z,9.10
2019-04-10T08:13:16.132Z,9.00
2019-04-10T08:15:47.202Z,9.20
2019-04-10T08:18:21.136Z,9.20
2019-04-10T08:20:53.045Z,9.40
2019-04-10T08:23:24.068Z,9.30
2019-04-10T08:25:55.877Z,9.30
2019-04-10T08:28:30.561Z,9.30
2019-04-10T08:31:01.116Z,9.40
2019-04-10T08:33:35.023Z,9.60
2019-04-10T08:36:07.531Z,9.50
2019-04-10T08:38:38.382Z,9.60
2019-04-10T08:41:11.102Z,10.00
2019-04-10T08:43:43.023Z,10.00
2019-04-10T08:46:15.242Z,10.20
2019-04-10T08:48:49.789Z,10.30
2019-04-10T08:51:21.432Z,10.20
2019-04-10T08:54:00.565Z,10.40
2019-04-10T08:56:33.846Z,10.50
2019-04-10T08:59:05.872Z,10.70
2019-04-10T09:01:43.197Z,10.60
2019-04-10T09:04:18.036Z,10.50
2019-04-10T09:06:49.475Z,10.60
2019-04-10T09:09:21.577Z,10.30
2019-04-10T09:11:57.638Z,10.30
2019-04-10T09:14:29.708Z,10.50
2019-04-10T09:17:00.819Z,10.70
2019-04-10T09:19:36.159Z,10.90
2019-04-10T09:22:12.641Z,11.10
2019-04-10T09:24:44.548Z,11.40
2019-04-10T09:27:15.579Z,11.50
2019-04-10T09:29:49.197Z,11.30
2019-04-10T09:32:20.152Z,11.10
2019-04-10T09:34:51.990Z,10.60
2019-04-10T09:37:26.122Z,10.60
2019-04-10T09:39:58.078Z,10.80
2019-04-10T09:42:35.222Z,11.20
2019-04-10T09:45:08.024Z,11.40
2019-04-10T09:47:39.588Z,11.50
2019-04-10T09:50:26.223Z,11.80
2019-04-10T09:53:00.156Z,11.90
2019-04-10T09:55:33.634Z,11.60
2019-04-10T09:58:19.873Z,11.60
2019-04-10T10:00:58.534Z,11.70
2019-04-10T10:03:34.621Z,11.90
2019-04-10T10:06:05.398Z,11.80
2019-04-10T10:08:36.121Z,11.50
2019-04-10T10:11:07.113Z,11.40
2019-04-10T10:13:56.318Z,11.40
2019-04-10T10:16:28.984Z,11.40
2019-04-10T10:19:09.999Z,11.80
2019-04-10T10:21:45.811Z,11.80
2019-04-10T10:24:16.853Z,12.00
2019-04-10T10:26:49.374Z,12.00
2019-04-10T10:29:20.292Z,12.20
2019-04-10T10:31:52.243Z,12.20
2019-04-10T10:34:23.476Z,12.40
2019-04-10T10:36:54.326Z,12.40
2019-04-10T10:39:25.162Z,12.40
2019-04-10T10:41:58.605Z,12.50
2019-04-10T10:44:30.133Z,12.70
2019-04-10T10:47:01.978Z,12.80
2019-04-10T10:49:32.948Z,13.10
2019-04-10T10:52:03.777Z,13.10
2019-04-10T10:54:34.944Z,13.30
2019-04-10T10:57:06.840Z,13.10
2019-04-10T10:59:40.465Z,13.10
2019-04-10T11:02:11.273Z,13.10
2019-04-10T11:05:10.698Z,13.30
2019-04-10T11:07:42.907Z,13.40
2019-04-10T11:10:14.741Z,13.20
2019-04-10T11:12:48.396Z,13.30
2019-04-10T11:15:20.151Z,13.40
2019-04-10T11:17:53.798Z,13.30
2019-04-10T11:20:25.678Z,13.50
2019-04-10T11:22:57.470Z,13.90
2019-04-10T11:25:30.203Z,13.90
2019-04-10T11:28:04.006Z,13.70
2019-04-10T11:30:34.794Z,13.80
2019-04-10T11:33:08.440Z,14.00
2019-04-10T11:35:39.686Z,14.20
2019-04-10T11:38:10.956Z,14.30
2019-04-10T11:40:47.040Z,14.20
2019-04-10T11:43:19.045Z,14.10
2019-04-10T11:45:53.786Z,14.00
2019-04-10T11:48:23.013Z,14.00
2019-04-10T11:50:59.667Z,14.00
2019-04-10T11:53:35.296Z,14.40
2019-04-10T11:56:05.445Z,14.40
2019-04-10T11:58:43.021Z,14.40
2019-04-10T12:01:10.487Z,14.70
2019-04-10T12:03:49.050Z,14.70
2019-04-10T12:06:20.781Z,15.00
2019-04-10T12:09:23.224Z,15.70
2019-04-10T12:11:31.111Z,17.10
2019-04-10T12:14:07.669Z,17.70
2019-04-10T12:16:43.206Z,18.30
2019-04-10T12:19:17.372Z,18.80
2019-04-10T12:21:50.298Z,18.80
2019-04-10T12:24:22.543Z,19.30
2019-04-10T12:26:53.290Z,19.40
2019-04-10T12:29:25.067Z,19.60
2019-04-10T12:32:04.170Z,20.10
2019-04-10T12:34:36.176Z,19.80
2019-04-10T12:37:09.289Z,19.20
2019-04-10T12:39:41.661Z,19.50
2019-04-10T12:42:16.450Z,19.60
2019-04-10T12:44:47.293Z,20.10
2019-04-10T12:47:18.131Z,20.30
2019-04-10T12:49:49.908Z,21.00
2019-04-10T12:52:22.670Z,21.10
2019-04-10T12:54:56.825Z,20.40
2019-04-10T12:57:28.421Z,19.40
2019-04-10T13:00:03.923Z,20.50
2019-04-10T13:02:32.307Z,21.30
2019-04-10T13:05:03.203Z,21.80
2019-04-10T13:07:37.956Z,21.70
2019-04-10T13:10:10.727Z,20.80
2019-04-10T13:12:42.452Z,20.40
2019-04-10T13:15:15.099Z,19.60
2019-04-10T13:17:49.091Z,19.00
2019-04-10T13:20:22.132Z,19.50
2019-04-10T13:22:54.541Z,20.10
2019-04-10T13:25:26.050Z,20.60
2019-04-10T13:27:57.031Z,21.20
2019-04-10T13:30:39.132Z,20.80
2019-04-10T13:33:02.501Z,20.50
2019-04-10T13:35:34.349Z,20.30
2019-04-10T13:38:06.770Z,21.10
2019-04-10T13:40:37.675Z,20.90
2019-04-10T13:43:09.602Z,20.30
2019-04-10T13:45:41.588Z,20.50
2019-04-10T13:48:13.144Z,21.20
2019-04-10T13:50:44.569Z,21.70
2019-04-10T13:53:15.552Z,21.90
2019-04-10T13:55:46.455Z,21.10
2019-04-10T13:58:17.308Z,20.20
2019-04-10T14:00:49.512Z,19.80
2019-04-10T14:03:20.834Z,18.20
2019-04-10T14:05:52.779Z,19.40
2019-04-10T14:08:41.558Z,19.80
2019-04-10T14:10:57.276Z,19.80
2019-04-10T14:13:29.551Z,19.40
2019-04-10T14:16:00.546Z,18.10
2019-04-10T14:18:31.451Z,17.90
2019-04-10T14:21:07.507Z,18.40
2019-04-10T14:23:35.322Z,18.90
2019-04-10T14:26:41.935Z,18.40
2019-04-10T14:29:07.220Z,18.60
2019-04-10T14:31:43.142Z,18.70
2019-04-10T14:34:16.684Z,19.40
2019-04-10T14:36:48.545Z,19.00
2019-04-10T14:39:21.332Z,19.20
2019-04-10T14:41:52.480Z,18.30
2019-04-10T14:44:23.418Z,17.50
2019-04-10T14:47:00.227Z,17.10
2019-04-10T14:49:31.357Z,17.50
2019-04-10T14:52:03.181Z,17.50
2019-04-10T14:54:34.086Z,17.70
2019-04-10T14:57:04.854Z,16.60
2019-04-10T14:59:35.929Z,15.40
2019-04-10T15:02:10.621Z,14.90
2019-04-10T15:04:43.534Z,14.90
2019-04-10T15:07:15.475Z,15.20
2019-04-10T15:09:47.330Z,16.00
2019-04-10T15:12:18.535Z,15.90
2019-04-10T15:14:51.995Z,14.90
2019-04-10T15:17:23.848Z,14.60
2019-04-10T15:19:54.533Z,14.60
2019-04-10T15:22:25.556Z,14.40
2019-04-10T15:24:57.489Z,14.10
2019-04-10T15:27:29.260Z,14.00
2019-04-10T15:30:00.178Z,14.00
2019-04-10T15:32:31.658Z,13.60
2019-04-10T15:35:02.497Z,13.00
2019-04-10T15:37:33.354Z,12.80
2019-04-10T15:40:11.897Z,12.90
2019-04-10T15:42:39.183Z,12.80
2019-04-10T15:45:12.761Z,12.90
2019-04-10T15:47:52.564Z,12.80
2019-04-10T15:50:58.104Z,12.80
2019-04-10T15:54:53.818Z,12.70
2019-04-10T15:57:56.804Z,12.60
2019-04-10T16:03:57.169Z,12.50
2019-04-10T16:06:31.393Z,12.40
2019-04-10T16:09:05.272Z,12.30
2019-04-10T16:12:16.607Z,12.20
2019-04-10T16:14:53.225Z,12.10
2019-04-10T16:17:56.941Z,12.00
2019-04-10T16:20:56.691Z,11.90
2019-04-10T16:23:44.278Z,11.60
2019-04-10T16:26:18.795Z,11.40
2019-04-10T16:28:49.738Z,11.40
2019-04-10T16:31:21.532Z,11.50
2019-04-10T16:33:54.889Z,11.60
2019-04-10T16:36:26.495Z,11.60
2019-04-10T16:39:00.792Z,11.70
2019-04-10T16:41:31.956Z,11.60
2019-04-10T16:44:02.833Z,11.50
2019-04-10T16:46:33.686Z,11.30
2019-04-10T16:49:06.692Z,11.30
2019-04-10T16:51:38.784Z,11.10
2019-04-10T16:54:10.488Z,11.00
2019-04-10T16:56:42.252Z,11.00
2019-04-10T16:59:14.259Z,11.10
2019-04-10T17:01:46.875Z,11.00
2019-04-10T17:04:18.799Z,10.90
2019-04-10T17:06:50.543Z,10.70
2019-04-10T17:09:22.873Z,10.60
2019-04-10T17:11:53.794Z,10.60
2019-04-10T17:14:24.631Z,10.50
2019-04-10T17:16:57.924Z,10.40
2019-04-10T17:19:30.824Z,10.40
2019-04-10T17:22:06.743Z,10.40
2019-04-10T17:24:37.793Z,10.30
2019-04-10T17:27:11.615Z,10.10
2019-04-10T17:29:42.682Z,10.10
2019-04-10T17:32:15.218Z,10.10
2019-04-10T17:34:51.122Z,10.00
2019-04-10T17:37:26.505Z,9.90
2019-04-10T17:40:01.875Z,9.80
2019-04-10T17:42:41.695Z,9.70
2019-04-10T17:45:14.177Z,9.50
2019-04-10T17:48:15.639Z,9.40
2019-04-10T17:50:49.704Z,9.30
2019-04-10T17:53:25.223Z,9.20
2019-04-10T17:56:13.924Z,9.00
2019-04-10T17:58:54.123Z,8.90
2019-04-10T18:01:32.664Z,8.80
2019-04-10T18:04:10.528Z,8.70
2019-04-10T18:06:50.458Z,8.60
2019-04-10T18:09:41.143Z,8.50
2019-04-10T18:12:06.190Z,8.40
2019-04-10T18:14:49.216Z,8.30
2019-04-10T18:17:26.938Z,8.30
2019-04-10T18:19:59.269Z,8.20
2019-04-10T18:22:34.362Z,8.10
2019-04-10T18:25:18.736Z,8.00
2019-04-10T18:28:04.008Z,7.80
2019-04-10T18:30:38.512Z,7.80
2019-04-10T18:33:56.270Z,7.70
2019-04-10T18:39:26.938Z,7.60
2019-04-10T18:45:01.662Z,7.40
2019-04-10T18:50:45.605Z,7.20
2019-04-10T18:53:28.914Z,7.10
2019-04-10T18:56:02.993Z,7.10
2019-04-10T18:58:41.952Z,7.10
2019-04-10T19:01:39.075Z,7.10
2019-04-10T19:04:28.913Z,6.90
2019-04-10T19:07:00.930Z,6.90
2019-04-10T19:09:41.437Z,6.80
2019-04-10T19:12:20.885Z,6.80
2019-04-10T19:14:54.133Z,6.70
2019-04-10T19:17:25.163Z,6.70
2019-04-10T19:19:57.552Z,6.60
2019-04-10T19:22:33.124Z,6.60
2019-04-10T19:25:14.489Z,6.50
2019-04-10T19:27:56.120Z,6.50
2019-04-10T19:30:43.580Z,6.50
2019-04-10T19:33:19.335Z,6.50
2019-04-10T19:35:59.413Z,6.40
2019-04-10T19:38:35.658Z,6.40
2019-04-10T19:41:21.313Z,6.30
2019-04-10T19:43:42.113Z,6.30
2019-04-10T19:46:13.233Z,6.20
2019-04-10T19:48:50.266Z,6.10
2019-04-10T19:51:23.826Z,6.10
2019-04-10T19:53:54.858Z,6.10
2019-04-10T19:56:26.688Z,6.00
2019-04-10T19:58:58.813Z,6.10
2019-04-10T20:01:34.080Z,6.00
2019-04-10T20:04:04.997Z,6.00
2019-04-10T20:06:36.266Z,5.90
2019-04-10T20:09:09.010Z,5.80
2019-04-10T20:11:46.658Z,5.80
2019-04-10T20:14:15.465Z,5.80
2019-04-10T20:16:49.381Z,5.80
2019-04-10T20:19:24.655Z,5.80
2019-04-10T20:21:58.955Z,5.70
2019-04-10T20:24:32.619Z,5.60
2019-04-10T20:27:03.725Z,5.70
2019-04-10T20:29:35.066Z,5.60
2019-04-10T20:32:06.034Z,5.60
2019-04-10T20:34:37.830Z,5.70
2019-04-10T20:37:10.761Z,5.60
2019-04-10T20:39:45.329Z,5.60
2019-04-10T20:42:18.225Z,5.50
2019-04-10T20:44:49.131Z,5.50
2019-04-10T20:47:20.066Z,5.50
2019-04-10T20:49:51.179Z,5.50
2019-04-10T20:52:22.150Z,5.40
2019-04-10T20:54:53.163Z,5.40
2019-04-10T20:57:24.034Z,5.40
2019-04-10T20:59:55.322Z,5.40
2019-04-10T21:02:28.705Z,5.40
2019-04-10T21:05:05.211Z,5.30
2019-04-10T21:07:31.934Z,5.30
2019-04-10T21:10:02.670Z,5.40
2019-04-10T21:12:34.270Z,5.30
2019-04-10T21:15:05.733Z,5.20
2019-04-10T21:17:37.435Z,5.20
2019-04-10T21:20:09.709Z,5.20
2019-04-10T21:22:40.693Z,5.20
2019-04-10T21:25:12.649Z,5.10
2019-04-10T21:27:44.082Z,5.10
2019-04-10T21:30:33.941Z,5.10
2019-04-10T21:33:22.665Z,5.10
2019-04-10T21:35:54.146Z,5.10
2019-04-10T21:38:25.904Z,5.00
2019-04-10T21:40:57.344Z,4.90
2019-04-10T21:43:28.306Z,4.90
2019-04-10T21:45:59.596Z,4.90
2019-04-10T21:48:33.013Z,4.90
2019-04-10T21:51:04.647Z,4.90
2019-04-10T21:53:36.032Z,4.80
2019-04-10T21:56:08.444Z,4.80
2019-04-10T21:58:41.574Z,4.80
2019-04-10T22:01:13.517Z,4.80
2019-04-10T22:03:45.517Z,4.70
2019-04-10T22:06:38.221Z,4.70
2019-04-10T22:09:28.453Z,4.60
2019-04-10T22:12:01.603Z,4.60
2019-04-10T22:14:33.630Z,4.60
2019-04-10T22:17:06.511Z,4.50
2019-04-10T22:19:38.397Z,4.50
2019-04-10T22:22:11.250Z,4.50
2019-04-10T22:24:42.621Z,4.40
2019-04-10T22:27:14.883Z,4.40
2019-04-10T22:29:47.189Z,4.40
2019-04-10T22:32:19.250Z,4.40
2019-04-10T22:34:50.581Z,4.30
2019-04-10T22:37:21.581Z,4.30
2019-04-10T22:39:54.543Z,4.30
2019-04-10T22:42:36.634Z,4.20
2019-04-10T22:45:00.349Z,4.20
2019-04-10T22:47:31.582Z,4.20
2019-04-10T22:50:03.356Z,4.10
2019-04-10T22:52:34.547Z,4.10
2019-04-10T22:55:07.140Z,4.00
2019-04-10T22:57:40.921Z,4.00
2019-04-10T23:00:13.881Z,4.00
2019-04-10T23:02:46.562Z,4.00
2019-04-10T23:05:18.361Z,3.90
2019-04-10T23:07:49.305Z,3.90
2019-04-10T23:10:21.133Z,3.90
2019-04-10T23:13:00.053Z,3.90
2019-04-10T23:15:25.227Z,3.90
2019-04-10T23:17:57.137Z,3.80
2019-04-10T23:20:28.087Z,3.80
2019-04-10T23:22:58.961Z,3.70
2019-04-10T23:25:29.865Z,3.80
2019-04-10T23:28:01.091Z,3.70
2019-04-10T23:30:33.116Z,3.70
2019-04-10T23:33:03.983Z,3.70
2019-04-10T23:35:35.784Z,3.60
2019-04-10T23:38:07.050Z,3.60
2019-04-10T23:40:37.905Z,3.60
2019-04-10T23:43:13.654Z,3.60
2019-04-10T23:45:44.140Z,3.60
2019-04-10T23:48:16.930Z,3.50
2019-04-10T23:50:48.286Z,3.50
2019-04-10T23:53:19.069Z,3.50
2019-04-10T23:55:50.345Z,3.50
2019-04-10T23:58:22.119Z,3.40
